Time;durP1;ratioP1;P1;durP2;ratioP2;P2;SDS_P1;SDS_P2;PMS_P1;PMS_P2;Temp;Humidity;BMP_temperature;BMP_pressure;BME280_temperature;BME280_humidity;BME280_pressure;Samples;Min_cycle;Max_cycle;Signal;HPM_P1;HPM_P2
2022/10/10 00:01:32;;;;;;;0.70;0.70;;;14.00;70.40;14.10;96599.00;;;;5093422;28;20290;-84
2022/10/10 00:04:00;;;;;;;1.40;0.87;;;14.00;70.40;14.10;96607.00;;;;5077737;28;20206;-84
2022/10/10 00:06:28;;;;;;;1.37;1.27;;;14.00;70.40;14.10;96603.00;;;;5089813;28;20219;-85
2022/10/10 00:08:56;;;;;;;1.43;0.90;;;14.00;70.40;14.10;96596.00;;;;5077658;28;20199;-84
2022/10/10 00:11:25;;;;;;;1.60;1.00;;;14.00;70.30;14.00;96599.00;;;;5074844;28;20310;-84
2022/10/10 00:13:52;;;;;;;1.33;0.77;;;13.90;70.40;14.00;96597.00;;;;5080367;28;20192;-85
2022/10/10 00:16:20;;;;;;;3.70;1.07;;;14.00;70.40;14.00;96597.00;;;;5089364;28;20314;-84
2022/10/10 00:18:48;;;;;;;0.90;0.90;;;13.90;70.40;14.00;96591.00;;;;5084427;28;20191;-84
2022/10/10 00:21:16;;;;;;;1.00;0.90;;;13.80;70.40;13.90;96593.00;;;;5072701;28;20249;-84
2022/10/10 00:23:43;;;;;;;1.63;0.80;;;13.80;70.40;13.90;96592.00;;;;5072474;28;20200;-84
2022/10/10 00:26:10;;;;;;;0.90;0.90;;;13.80;70.40;13.90;96595.00;;;;5078697;28;20216;-84
2022/10/10 00:28:39;;;;;;;2.03;1.03;;;13.80;70.30;13.90;96591.00;;;;5075667;28;20196;-84
2022/10/10 00:31:07;;;;;;;1.93;0.80;;;13.80;70.30;13.80;96596.00;;;;5082652;28;20229;-84
2022/10/10 00:33:34;;;;;;;1.27;1.00;;;13.70;70.40;13.80;96586.00;;;;5077113;28;20589;-84
2022/10/10 00:36:01;;;;;;;1.00;0.90;;;13.70;70.60;13.80;96585.00;;;;5086098;28;20223;-84
2022/10/10 00:38:28;;;;;;;2.20;1.07;;;13.70;70.80;13.80;96591.00;;;;5085165;28;20648;-84
2022/10/10 00:40:56;;;;;;;0.90;0.90;;;13.70;70.80;13.80;96589.00;;;;5082038;28;20192;-84
2022/10/10 00:43:26;;;;;;;0.97;0.97;;;13.70;70.90;13.80;96593.00;;;;5087056;28;20282;-85
2022/10/10 00:45:55;;;;;;;1.03;1.00;;;13.70;70.90;13.80;96588.00;;;;5082312;28;20754;-84
2022/10/10 00:48:27;;;;;;;1.77;0.83;;;13.70;70.90;13.80;96582.00;;;;5085081;28;20282;-84
2022/10/10 00:51:00;;;;;;;2.03;0.90;;;13.60;70.70;13.70;96590.00;;;;5091603;28;20231;-84
2022/10/10 00:53:30;;;;;;;1.10;1.00;;;13.60;70.50;13.70;96587.00;;;;5073908;28;20192;-84
2022/10/10 00:55:59;;;;;;;1.70;1.00;;;13.60;70.50;13.70;96587.00;;;;5081122;28;20303;-84
2022/10/10 00:58:26;;;;;;;0.90;0.90;;;13.70;70.70;13.70;96583.00;;;;5078200;28;20246;-84
2022/10/10 01:00:55;;;;;;;1.60;1.10;;;13.60;70.70;13.70;96586.00;;;;5081363;28;20206;-85
2022/10/10 01:03:22;;;;;;;1.97;0.97;;;13.50;70.70;13.70;96589.00;;;;5081641;28;20217;-84
2022/10/10 01:05:51;;;;;;;0.90;0.90;;;13.50;70.70;13.60;96586.00;;;;5083590;28;20210;-84
2022/10/10 01:08:20;;;;;;;1.27;1.13;;;13.50;70.60;13.60;96575.00;;;;5086187;28;20199;-84
2022/10/10 01:11:09;;;;;;;0.87;0.87;;;13.50;70.60;13.60;96578.00;;;;5087200;28;20215;-84
2022/10/10 01:13:51;;;;;;;1.00;1.00;;;13.50;70.50;13.50;96579.00;;;;5071544;28;20617;-84
2022/10/10 01:16:34;;;;;;;1.57;0.90;;;13.40;71.10;13.50;96566.00;;;;5082652;28;20659;-84
2022/10/10 01:19:27;;;;;;;1.10;0.97;;;13.40;70.30;13.40;96566.00;;;;5082374;28;20196;-84
2022/10/10 01:22:09;;;;;;;2.10;1.10;;;13.40;70.40;13.40;96560.00;;;;5083320;28;20210;-84
2022/10/10 01:24:57;;;;;;;1.33;1.03;;;13.40;70.50;13.30;96563.00;;;;5090420;28;20221;-85
2022/10/10 01:27:31;;;;;;;1.10;1.00;;;13.30;70.40;13.30;96562.00;;;;5089754;28;20226;-84
2022/10/10 01:30:05;;;;;;;1.03;0.83;;;13.20;70.40;13.20;96562.00;;;;5078063;28;20198;-84
2022/10/10 01:32:39;;;;;;;0.87;0.70;;;13.20;70.40;13.20;96564.00;;;;5085389;28;20207;-84
2022/10/10 01:35:39;;;;;;;1.33;0.80;;;13.20;70.40;13.10;96560.00;;;;5078607;28;20757;-84
2022/10/10 01:38:22;;;;;;;2.07;1.03;;;13.20;70.40;13.10;96557.00;;;;5089071;28;20635;-84
2022/10/10 01:40:58;;;;;;;1.00;1.00;;;13.10;70.30;13.00;96556.00;;;;5091663;28;20195;-84
2022/10/10 01:43:26;;;;;;;1.00;1.00;;;13.10;70.40;13.00;96560.00;;;;5091962;28;20190;-84
2022/10/10 01:45:54;;;;;;;1.60;1.00;;;13.00;70.30;13.00;96559.00;;;;5086782;28;20725;-84
2022/10/10 01:48:28;;;;;;;1.40;0.90;;;13.00;70.30;12.90;96554.00;;;;5071451;28;20199;-84
2022/10/10 01:51:17;;;;;;;2.40;1.30;;;12.90;70.40;12.90;96558.00;;;;5081344;28;20685;-84
2022/10/10 01:53:57;;;;;;;1.20;1.00;;;12.90;70.50;12.80;96560.00;;;;5086569;28;20278;-84
2022/10/10 01:56:41;;;;;;;0.93;0.93;;;12.80;70.50;12.80;96553.00;;;;5091505;28;20292;-85
2022/10/10 01:59:27;;;;;;;1.90;1.60;;;12.80;70.70;12.80;96559.00;;;;5090745;28;20270;-85
2022/10/10 02:02:05;;;;;;;1.33;1.13;;;12.80;70.60;12.70;96557.00;;;;5077396;28;20278;-84
2022/10/10 02:04:42;;;;;;;1.83;1.10;;;12.70;70.60;12.70;96551.00;;;;5091479;28;20278;-84
2022/10/10 02:07:18;;;;;;;1.70;0.90;;;12.70;70.70;12.70;96552.00;;;;5074819;28;20198;-84
2022/10/10 02:09:51;;;;;;;1.50;1.23;;;12.70;70.80;12.70;96554.00;;;;5077763;28;20282;-83
2022/10/10 02:12:22;;;;;;;3.00;1.33;;;12.60;70.90;12.60;96555.00;;;;5083580;28;20246;-84
2022/10/10 02:14:56;;;;;;;1.53;1.43;;;12.60;71.10;12.60;96558.00;;;;5087467;28;20303;-85
2022/10/10 02:17:26;;;;;;;2.53;1.47;;;12.60;71.20;12.60;96554.00;;;;5075095;28;20199;-84
2022/10/10 02:19:58;;;;;;;1.00;1.00;;;12.60;71.40;12.60;96555.00;;;;5092726;28;20207;-84
2022/10/10 02:22:28;;;;;;;1.53;1.20;;;12.60;71.60;12.70;96552.00;;;;5095044;28;20297;-84
2022/10/10 02:24:56;;;;;;;1.57;1.40;;;12.60;72.60;12.70;96556.00;;;;5090030;28;20298;-84
2022/10/10 02:27:35;;;;;;;1.20;1.10;;;12.60;72.10;12.70;96553.00;;;;5093447;28;20219;-84
2022/10/10 02:30:04;;;;;;;1.50;1.20;;;12.60;72.30;12.70;96552.00;;;;5094705;28;20179;-84
2022/10/10 02:32:41;;;;;;;1.43;1.17;;;12.60;72.40;12.80;96556.00;;;;5094783;28;20235;-84
2022/10/10 02:35:14;;;;;;;2.13;1.20;;;12.60;72.70;12.80;96556.00;;;;5094161;28;20229;-84
2022/10/10 02:37:44;;;;;;;0.97;0.90;;;12.60;72.70;12.90;96556.00;;;;5077166;28;20187;-84
2022/10/10 02:40:16;;;;;;;1.70;1.30;;;12.70;72.90;12.90;96555.00;;;;5094386;28;20672;-84
2022/10/10 02:42:47;;;;;;;1.40;1.20;;;12.70;73.10;13.00;96557.00;;;;5094962;28;20640;-84
2022/10/10 02:45:15;;;;;;;1.23;1.00;;;12.70;73.20;13.00;96560.00;;;;5101811;22;20287;-81
2022/10/10 02:47:45;;;;;;;1.80;1.23;;;12.80;74.10;13.00;96553.00;;;;5081956;28;20729;-81
2022/10/10 02:50:12;;;;;;;1.37;1.27;;;12.80;73.50;13.10;96561.00;;;;5069658;28;20652;-81
2022/10/10 02:52:49;;;;;;;1.73;1.30;;;12.80;73.40;13.10;96559.00;;;;5074350;28;20248;-82
2022/10/10 02:55:20;;;;;;;1.40;1.30;;;12.90;73.60;13.10;96560.00;;;;5050270;28;20204;-82
2022/10/10 02:57:47;;;;;;;1.40;1.30;;;12.90;73.70;13.20;96556.00;;;;5074178;28;20192;-81
2022/10/10 03:00:17;;;;;;;1.20;1.10;;;13.00;73.90;13.20;96558.00;;;;5043721;28;20624;-81
2022/10/10 03:02:50;;;;;;;1.20;1.07;;;13.00;74.00;13.30;96569.00;;;;5044039;28;20209;-82
2022/10/10 03:05:21;;;;;;;1.30;1.20;;;13.00;73.90;13.30;96573.00;;;;5044380;28;20197;-81
2022/10/10 03:07:49;;;;;;;1.80;1.60;;;13.10;74.10;13.30;96569.00;;;;5053797;28;20229;-81
2022/10/10 03:10:17;;;;;;;2.27;1.63;;;13.10;74.00;13.40;96572.00;;;;5050116;28;20197;-80
2022/10/10 03:12:44;;;;;;;1.93;1.37;;;13.10;74.10;13.40;96568.00;;;;5062290;28;20251;-81
2022/10/10 03:15:11;;;;;;;1.70;1.60;;;13.20;74.10;13.40;96561.00;;;;5058140;28;20236;-81
2022/10/10 03:17:38;;;;;;;3.10;2.00;;;13.20;74.30;13.50;96565.00;;;;5061614;28;20191;-81
2022/10/10 03:20:09;;;;;;;2.13;1.93;;;13.20;74.40;13.50;96562.00;;;;5043313;28;20201;-80
2022/10/10 03:22:36;;;;;;;6.33;2.10;;;13.30;74.60;13.50;96560.00;;;;5041741;28;20248;-81
2022/10/10 03:25:08;;;;;;;2.50;1.87;;;13.30;74.70;13.60;96564.00;;;;5040267;28;20204;-81
2022/10/10 03:27:35;;;;;;;4.77;2.20;;;13.30;74.80;13.60;96551.00;;;;5047763;28;20204;-81
2022/10/10 03:30:03;;;;;;;3.27;2.23;;;13.40;74.80;13.60;96557.00;;;;5042992;28;20649;-81
2022/10/10 03:32:30;;;;;;;3.30;2.13;;;13.40;74.90;13.60;96563.00;;;;5049020;28;20666;-79
2022/10/10 03:34:57;;;;;;;4.57;2.30;;;13.40;74.90;13.60;96565.00;;;;5052831;28;20207;-81
2022/10/10 03:37:26;;;;;;;6.63;2.10;;;13.40;74.90;13.60;96560.00;;;;5056738;28;20650;-81
2022/10/10 03:39:54;;;;;;;3.60;2.30;;;13.40;75.00;13.60;96564.00;;;;5043631;28;20551;-81
2022/10/10 03:42:21;;;;;;;6.03;2.30;;;13.50;75.00;13.70;96569.00;;;;5042812;28;20240;-81
2022/10/10 03:44:51;;;;;;;9.07;2.47;;;13.50;75.20;13.70;96568.00;;;;5050175;28;20224;-81
2022/10/10 03:47:20;;;;;;;4.37;2.70;;;13.50;75.30;13.70;96564.00;;;;5044929;28;20213;-82
2022/10/10 03:49:58;;;;;;;4.50;2.63;;;13.50;75.30;13.70;96567.00;;;;5054275;28;20235;-82
2022/10/10 03:52:32;;;;;;;5.20;2.57;;;13.50;75.50;13.70;96571.00;;;;5058313;28;20601;-82
2022/10/10 03:55:06;;;;;;;3.90;2.30;;;13.50;75.50;13.70;96571.00;;;;5048941;28;20197;-82
2022/10/10 03:57:36;;;;;;;3.87;2.60;;;13.60;75.60;13.80;96561.00;;;;5052336;28;20192;-81
2022/10/10 04:00:04;;;;;;;3.30;2.40;;;13.60;75.60;13.80;96561.00;;;;5061194;28;20201;-81
2022/10/10 04:02:31;;;;;;;5.70;2.43;;;13.60;75.80;13.80;96557.00;;;;5043435;28;20286;-81
2022/10/10 04:04:59;;;;;;;8.17;3.50;;;13.60;75.70;13.80;96557.00;;;;5039628;28;20700;-81
2022/10/10 04:07:28;;;;;;;7.77;3.13;;;13.60;75.80;13.80;96561.00;;;;5052796;28;20202;-80
2022/10/10 04:09:55;;;;;;;4.20;2.83;;;13.70;76.00;13.90;96562.00;;;;5048150;28;20272;-81
2022/10/10 04:12:22;;;;;;;5.97;3.70;;;13.70;76.00;13.90;96565.00;;;;5042857;28;20220;-81
2022/10/10 04:14:50;;;;;;;4.20;2.90;;;13.70;76.10;13.90;96560.00;;;;5066215;28;20200;-81
2022/10/10 04:17:20;;;;;;;7.03;3.67;;;13.70;76.10;13.90;96553.00;;;;5056273;28;20827;-81
2022/10/10 04:19:47;;;;;;;6.77;3.73;;;13.70;76.10;13.90;96558.00;;;;5067970;28;20192;-82
2022/10/10 04:22:15;;;;;;;6.97;3.53;;;13.70;76.20;14.00;96553.00;;;;5060843;28;20235;-81
2022/10/10 04:24:44;;;;;;;5.60;3.77;;;13.80;76.30;14.00;96554.00;;;;5054032;28;20194;-82
2022/10/10 04:27:12;;;;;;;6.30;3.53;;;13.80;76.40;14.00;96559.00;;;;5050516;28;20217;-81
2022/10/10 04:29:39;;;;;;;5.67;3.47;;;13.80;76.50;14.00;96557.00;;;;5043202;28;20642;-81
2022/10/10 04:32:07;;;;;;;4.90;3.20;;;13.80;76.50;14.10;96551.00;;;;5042445;28;20311;-81
2022/10/10 04:34:34;;;;;;;10.27;4.30;;;13.80;76.60;14.10;96559.00;;;;5043050;28;20243;-82
2022/10/10 04:37:01;;;;;;;8.47;4.20;;;13.90;76.60;14.10;96558.00;;;;5063091;28;20215;-81
2022/10/10 04:39:28;;;;;;;8.00;4.23;;;13.90;76.70;14.10;96553.00;;;;5082279;28;20200;-82
2022/10/10 04:41:57;;;;;;;9.47;4.47;;;13.90;76.60;14.10;96558.00;;;;5048932;28;20226;-80
2022/10/10 04:44:29;;;;;;;8.13;4.60;;;13.90;76.70;14.20;96552.00;;;;5047664;28;20648;-81
2022/10/10 04:46:59;;;;;;;8.57;4.90;;;14.00;76.90;14.20;96556.00;;;;5060595;28;20283;-81
2022/10/10 04:49:28;;;;;;;8.93;4.30;;;14.00;76.80;14.20;96552.00;;;;5038200;28;20200;-81
2022/10/10 04:51:56;;;;;;;5.93;4.53;;;14.00;76.90;14.20;96556.00;;;;5066115;28;20298;-81
2022/10/10 04:54:25;;;;;;;6.97;5.07;;;14.00;76.90;14.30;96561.00;;;;5061716;28;20236;-80
2022/10/10 04:56:57;;;;;;;6.80;4.50;;;14.00;77.00;14.30;96559.00;;;;5046414;28;20200;-80
2022/10/10 04:59:27;;;;;;;9.07;5.30;;;14.00;77.10;14.30;96555.00;;;;5054533;28;20224;-81
2022/10/10 05:01:57;;;;;;;9.60;5.57;;;14.00;77.20;14.30;96562.00;;;;5062469;28;20259;-81
2022/10/10 05:04:27;;;;;;;7.03;5.07;;;14.10;77.40;14.30;96564.00;;;;5050349;28;20251;-80
2022/10/10 05:06:58;;;;;;;7.67;4.73;;;14.10;77.40;14.40;96560.00;;;;5060181;28;20202;-81
2022/10/10 05:09:29;;;;;;;7.00;4.90;;;14.20;77.50;14.40;96567.00;;;;5048154;28;20562;-80
2022/10/10 05:11:58;;;;;;;8.03;4.90;;;14.10;77.50;14.40;96560.00;;;;5047655;28;20275;-81
2022/10/10 05:14:29;;;;;;;8.33;5.17;;;14.20;77.50;14.50;96568.00;;;;5053942;28;20341;-80
2022/10/10 05:16:56;;;;;;;7.60;5.20;;;14.20;77.50;14.50;96566.00;;;;5049290;28;20658;-81
2022/10/10 05:19:32;;;;;;;8.07;5.63;;;14.30;77.70;14.50;96568.00;;;;5059173;28;20721;-80
2022/10/10 05:22:00;;;;;;;8.07;5.07;;;14.30;77.60;14.60;96568.00;;;;5062002;28;20283;-81
2022/10/10 05:24:27;;;;;;;9.07;5.67;;;14.30;77.70;14.60;96565.00;;;;5060546;28;20256;-81
2022/10/10 05:26:54;;;;;;;9.03;5.47;;;14.30;77.70;14.60;96578.00;;;;5057925;28;20665;-82
2022/10/10 05:29:23;;;;;;;7.97;5.07;;;14.40;77.80;14.70;96574.00;;;;5050616;28;20204;-83
2022/10/10 05:31:50;;;;;;;6.37;4.80;;;14.40;77.90;14.70;96578.00;;;;5052349;28;20220;-82
2022/10/10 05:34:18;;;;;;;7.67;5.47;;;14.40;77.90;14.70;96575.00;;;;5065472;28;20279;-82
2022/10/10 05:36:47;;;;;;;7.00;5.23;;;14.50;78.00;14.80;96585.00;;;;5056066;28;20208;-82
2022/10/10 05:39:15;;;;;;;6.70;4.57;;;14.50;78.10;14.80;96575.00;;;;5068354;28;20227;-81
2022/10/10 05:41:51;;;;;;;7.90;5.07;;;14.50;78.00;14.90;96575.00;;;;5052136;28;20213;-87
2022/10/10 05:44:21;;;;;;;9.53;5.43;;;14.60;78.00;14.90;96587.00;;;;5046694;28;20197;-85
2022/10/10 05:46:53;;;;;;;8.13;5.57;;;14.60;78.10;15.00;96586.00;;;;5043362;28;20216;-86
2022/10/10 05:49:22;;;;;;;7.60;5.50;;;14.70;78.20;15.00;96584.00;;;;5057234;28;20204;-87
2022/10/10 05:51:49;;;;;;;6.17;4.90;;;14.70;78.20;15.10;96577.00;;;;5037777;28;20651;-85
2022/10/10 05:54:17;;;;;;;7.97;5.70;;;14.70;78.20;15.10;96589.00;;;;5040237;28;20683;-85
2022/10/10 05:56:50;;;;;;;6.73;5.43;;;14.70;78.20;15.20;96582.00;;;;5064424;28;20837;-86
2022/10/10 05:59:17;;;;;;;7.13;5.80;;;14.80;78.30;15.20;96591.00;;;;5056089;28;20283;-85
2022/10/10 06:01:44;;;;;;;8.03;5.67;;;14.80;78.20;15.30;96583.00;;;;5051129;28;20248;-84
2022/10/10 06:04:13;;;;;;;8.73;5.77;;;14.90;78.30;15.30;96589.00;;;;5071985;28;20645;-84
2022/10/10 06:06:43;;;;;;;6.83;5.70;;;14.90;78.40;15.40;96588.00;;;;5057351;28;20227;-85
2022/10/10 06:09:15;;;;;;;6.97;5.43;;;15.00;78.50;15.40;96588.00;;;;5055690;28;20197;-86
2022/10/10 06:11:43;;;;;;;6.73;5.53;;;15.00;78.50;15.40;96585.00;;;;5051170;28;20221;-85
2022/10/10 06:14:10;;;;;;;7.13;6.07;;;15.00;78.40;15.50;96596.00;;;;5045950;28;20954;-86
2022/10/10 06:16:38;;;;;;;8.27;5.87;;;15.10;78.50;15.50;96591.00;;;;5045867;28;20636;-84
2022/10/10 06:19:07;;;;;;;7.00;5.60;;;15.10;78.90;15.60;96598.00;;;;5048408;28;20707;-84
2022/10/10 06:21:42;;;;;;;12.53;6.27;;;15.20;78.70;15.60;96594.00;;;;5050353;28;20263;-85
2022/10/10 06:24:09;;;;;;;8.80;6.37;;;15.20;78.70;15.60;96600.00;;;;5050774;28;20204;-85
2022/10/10 06:26:39;;;;;;;9.77;6.37;;;15.30;78.80;15.60;96606.00;;;;5055039;28;20232;-85
2022/10/10 06:29:15;;;;;;;8.73;6.57;;;15.30;79.00;15.60;96604.00;;;;5043908;28;20209;-85
2022/10/10 06:31:45;;;;;;;9.87;6.33;;;15.30;78.90;15.70;96605.00;;;;5073339;28;20243;-84
2022/10/10 06:34:28;;;;;;;8.60;6.60;;;15.40;78.80;15.70;96607.00;;;;5068042;28;20251;-84
2022/10/10 06:36:58;;;;;;;9.10;6.00;;;15.40;78.90;15.70;96611.00;;;;5058901;28;20208;-85
2022/10/10 06:39:28;;;;;;;12.30;6.33;;;15.40;78.90;15.70;96615.00;;;;5068738;28;20224;-85
2022/10/10 06:41:55;;;;;;;10.57;6.47;;;15.50;79.00;15.80;96619.00;;;;5071599;28;20254;-85
2022/10/10 06:44:22;;;;;;;10.40;6.93;;;15.50;79.00;15.80;96622.00;;;;5054485;28;20232;-83
2022/10/10 06:46:50;;;;;;;8.10;6.40;;;15.50;79.80;15.80;96623.00;;;;5058403;28;20196;-85
2022/10/10 06:49:17;;;;;;;9.17;6.10;;;15.50;79.10;15.80;96616.00;;;;5059360;28;20217;-84
2022/10/10 06:51:44;;;;;;;7.13;5.60;;;15.60;79.10;15.90;96621.00;;;;5051821;28;20224;-83
2022/10/10 06:54:13;;;;;;;7.27;5.33;;;15.60;79.10;15.90;96623.00;;;;5058375;28;20212;-84
2022/10/10 06:56:40;;;;;;;6.17;5.53;;;15.60;79.20;16.00;96632.00;;;;5071741;28;20200;-85
2022/10/10 06:59:14;;;;;;;7.07;5.63;;;15.60;79.10;16.00;96633.00;;;;5054215;28;20225;-86
2022/10/10 07:01:45;;;;;;;6.67;5.83;;;15.70;79.20;16.00;96632.00;;;;5062127;28;20230;-85
2022/10/10 07:04:16;;;;;;;7.17;5.67;;;15.70;79.30;16.10;96637.00;;;;5054412;28;20299;-84
2022/10/10 07:06:43;;;;;;;6.80;5.00;;;15.70;79.20;16.10;96637.00;;;;5064261;28;20249;-84
2022/10/10 07:09:10;;;;;;;9.63;5.73;;;15.80;79.30;16.10;96628.00;;;;5060915;28;20274;-85
2022/10/10 07:11:44;;;;;;;8.47;5.60;;;15.80;79.30;16.20;96639.00;;;;5047596;28;20213;-84
2022/10/10 07:14:11;;;;;;;6.30;5.70;;;15.80;79.20;16.20;96640.00;;;;5045990;28;20228;-85
2022/10/10 07:16:39;;;;;;;7.50;5.63;;;15.90;79.20;16.20;96641.00;;;;5068487;22;20259;-85
2022/10/10 07:19:06;;;;;;;7.10;5.53;;;15.90;79.30;16.20;96649.00;;;;5071161;28;20188;-85
2022/10/10 07:21:33;;;;;;;6.40;5.73;;;15.90;79.10;16.30;96647.00;;;;5058199;28;20271;-85
2022/10/10 07:24:01;;;;;;;6.63;5.40;;;16.00;79.00;16.30;96649.00;;;;5032887;28;20259;-85
2022/10/10 07:26:35;;;;;;;5.87;5.03;;;16.00;78.90;16.40;96658.00;;;;5032855;28;20217;-87
2022/10/10 07:29:04;;;;;;;5.30;4.80;;;16.00;78.90;16.50;96653.00;;;;5033548;28;20235;-87
2022/10/10 07:31:33;;;;;;;5.37;4.87;;;16.00;78.90;16.50;96658.00;;;;5034148;28;20304;-87
2022/10/10 07:34:00;;;;;;;8.27;5.10;;;16.10;78.90;16.60;96656.00;;;;5052764;28;20311;-87
2022/10/10 07:36:27;;;;;;;5.80;5.10;;;16.20;79.00;16.60;96664.00;;;;5053021;28;20232;-85
2022/10/10 07:38:56;;;;;;;6.93;4.70;;;16.20;78.90;16.60;96666.00;;;;5053152;28;20717;-85
2022/10/10 07:41:23;;;;;;;5.10;4.60;;;16.20;78.80;16.70;96660.00;;;;5053320;28;20256;-86
2022/10/10 07:43:55;;;;;;;5.77;5.17;;;16.30;78.90;16.80;96660.00;;;;5051615;28;20645;-85
2022/10/10 07:46:29;;;;;;;5.70;4.90;;;16.30;79.00;16.80;96671.00;;;;5036347;28;20215;-85
2022/10/10 07:48:56;;;;;;;5.17;4.67;;;16.40;79.00;16.90;96671.00;;;;5052999;28;20768;-85
2022/10/10 07:51:23;;;;;;;5.70;5.20;;;16.40;78.80;16.90;96679.00;;;;5052753;28;20312;-85
2022/10/10 07:53:52;;;;;;;5.50;5.00;;;16.40;78.60;16.90;96678.00;;;;5053000;28;20232;-85
2022/10/10 07:56:20;;;;;;;6.73;5.40;;;16.40;78.40;16.90;96670.00;;;;5052710;28;20246;-85
2022/10/10 07:58:47;;;;;;;5.50;5.00;;;16.50;78.30;16.90;96674.00;;;;5052994;28;20641;-85
2022/10/10 08:01:15;;;;;;;6.00;4.90;;;16.50;78.10;17.00;96672.00;;;;5051443;28;20193;-85
2022/10/10 08:03:47;;;;;;;5.53;4.73;;;16.50;78.10;17.00;96672.00;;;;5052453;28;20653;-86
2022/10/10 08:06:17;;;;;;;5.13;4.63;;;16.60;78.10;17.00;96673.00;;;;5045620;28;20225;-85
2022/10/10 08:08:51;;;;;;;5.63;4.67;;;16.60;78.10;17.00;96671.00;;;;5032557;28;20205;-85
2022/10/10 08:11:20;;;;;;;5.37;4.83;;;16.60;78.70;17.00;96680.00;;;;5032771;28;20549;-86
2022/10/10 08:13:48;;;;;;;5.40;4.73;;;16.60;78.00;17.10;96681.00;;;;5031890;28;20248;-85
2022/10/10 08:16:15;;;;;;;5.43;4.93;;;16.60;77.90;17.10;96673.00;;;;5032027;28;20263;-85
2022/10/10 08:18:44;;;;;;;5.23;4.40;;;16.70;77.90;17.10;96681.00;;;;5031823;28;20201;-86
2022/10/10 08:21:14;;;;;;;5.27;4.77;;;16.70;77.80;17.10;96675.00;;;;5039260;28;20287;-86
2022/10/10 08:23:41;;;;;;;7.13;4.17;;;16.70;77.60;17.10;96678.00;;;;5042062;28;20209;-85
2022/10/10 08:26:11;;;;;;;5.10;4.60;;;16.80;77.70;17.10;96678.00;;;;5031997;28;20229;-85
2022/10/10 08:28:42;;;;;;;4.90;3.93;;;16.80;77.80;17.20;96678.00;;;;5032300;28;20267;-85
2022/10/10 08:31:11;;;;;;;4.90;4.50;;;16.80;77.70;17.20;96677.00;;;;5032234;28;20184;-86
2022/10/10 08:33:40;;;;;;;4.27;3.97;;;16.90;77.90;17.30;96680.00;;;;5031895;28;20786;-86
2022/10/10 08:36:13;;;;;;;4.57;4.17;;;16.90;77.80;17.40;96683.00;;;;5032011;28;20284;-86
2022/10/10 08:38:40;;;;;;;4.77;4.33;;;16.90;77.60;17.40;96682.00;;;;5031018;28;20240;-85
2022/10/10 08:41:10;;;;;;;5.53;5.00;;;17.00;77.60;17.40;96687.00;;;;5031913;28;20600;-86
2022/10/10 08:43:45;;;;;;;4.67;4.27;;;17.00;77.60;17.50;96689.00;;;;5032358;28;20615;-85
2022/10/10 08:46:25;;;;;;;5.10;4.60;;;17.10;77.70;17.60;96688.00;;;;5048425;28;20282;-86
2022/10/10 08:48:56;;;;;;;5.43;4.37;;;17.10;77.50;17.60;96695.00;;;;5049921;28;20595;-86
2022/10/10 08:51:29;;;;;;;4.73;4.30;;;17.10;77.40;17.70;96690.00;;;;5051667;28;20301;-85
2022/10/10 08:54:01;;;;;;;4.33;3.93;;;17.20;77.60;17.80;96686.00;;;;5051315;28;20252;-85
2022/10/10 08:56:34;;;;;;;4.60;4.23;;;17.20;78.20;17.80;96683.00;;;;5051247;28;20243;-86
2022/10/10 08:59:10;;;;;;;4.30;3.53;;;17.30;77.60;18.00;96683.00;;;;5051554;28;20251;-86
2022/10/10 09:01:38;;;;;;;4.10;3.70;;;17.40;77.80;18.10;96688.00;;;;5034897;28;20327;-86
2022/10/10 09:04:13;;;;;;;3.67;3.37;;;17.40;77.70;18.20;96689.00;;;;5050903;28;20632;-85
2022/10/10 09:07:08;;;;;;;3.97;3.67;;;17.50;77.60;18.30;96680.00;;;;5048151;28;20199;-85
2022/10/10 09:09:44;;;;;;;3.63;3.33;;;17.70;77.70;18.40;96684.00;;;;5031711;28;20186;-85
2022/10/10 09:12:30;;;;;;;3.57;3.37;;;17.80;77.70;18.50;96674.00;;;;5031057;28;20231;-85
2022/10/10 09:15:12;;;;;;;3.27;3.07;;;17.80;77.40;18.60;96679.00;;;;5031643;28;20893;-85
2022/10/10 09:17:47;;;;;;;3.27;3.00;;;17.90;77.50;18.70;96681.00;;;;5030496;28;20681;-85
2022/10/10 09:20:33;;;;;;;3.70;3.40;;;18.00;77.40;18.80;96690.00;;;;5036900;28;20211;-85
2022/10/10 09:23:12;;;;;;;3.67;3.37;;;18.10;77.40;18.90;96695.00;;;;5037299;28;20232;-85
2022/10/10 09:25:47;;;;;;;4.37;3.50;;;18.30;77.50;19.10;96700.00;;;;5033860;28;20353;-85
2022/10/10 09:28:21;;;;;;;2.83;2.63;;;18.40;78.10;19.30;96697.00;;;;5031635;28;20717;-85
2022/10/10 09:30:57;;;;;;;2.97;2.77;;;18.50;77.50;19.50;96695.00;;;;5031451;28;20196;-85
2022/10/10 09:33:32;;;;;;;2.60;2.40;;;18.60;77.50;19.70;96695.00;;;;5042335;28;20230;-85
2022/10/10 09:36:05;;;;;;;2.93;2.60;;;18.80;77.60;19.90;96694.00;;;;5036145;28;20198;-85
2022/10/10 09:38:57;;;;;;;2.37;2.00;;;18.90;77.60;20.10;96690.00;;;;5051789;28;20689;-87
2022/10/10 09:41:35;;;;;;;2.50;2.30;;;19.10;76.50;20.20;96693.00;;;;5051702;28;20224;-84
2022/10/10 09:44:08;;;;;;;2.47;2.27;;;19.30;76.90;20.30;96698.00;;;;5052175;28;20202;-84
2022/10/10 09:46:38;;;;;;;2.60;2.40;;;19.50;77.10;20.50;96702.00;;;;5047599;28;20689;-84
2022/10/10 09:49:09;;;;;;;2.67;2.40;;;19.70;77.10;20.60;96700.00;;;;5037782;28;20190;-85
2022/10/10 09:51:37;;;;;;;2.20;1.90;;;19.80;76.80;20.70;96689.00;;;;5048849;28;20270;-84
2022/10/10 09:54:07;;;;;;;1.97;1.87;;;20.00;76.20;20.80;96694.00;;;;5050767;28;20220;-84
2022/10/10 09:56:44;;;;;;;2.10;2.00;;;20.10;75.20;20.80;96703.00;;;;5051116;28;20194;-84
2022/10/10 09:59:40;;;;;;;2.70;1.93;;;20.20;74.70;20.90;96696.00;;;;5050822;28;20645;-84
2022/10/10 10:02:17;;;;;;;1.80;1.70;;;20.30;74.40;21.00;96710.00;;;;5030862;28;20587;-85
2022/10/10 10:04:45;;;;;;;2.53;1.73;;;20.40;74.70;21.10;96705.00;;;;5050074;28;20213;-85
2022/10/10 10:07:27;;;;;;;1.90;1.80;;;20.50;74.70;21.30;96699.00;;;;5051020;28;20281;-85
2022/10/10 10:09:59;;;;;;;2.20;2.00;;;20.70;73.80;21.40;96701.00;;;;5051266;28;20235;-85
2022/10/10 10:12:30;;;;;;;2.03;1.93;;;20.80;73.80;21.50;96702.00;;;;5041676;28;20228;-85
2022/10/10 10:15:06;;;;;;;2.00;1.77;;;20.90;73.40;21.60;96709.00;;;;5050481;28;20315;-85
2022/10/10 10:17:33;;;;;;;2.07;1.83;;;21.00;73.40;21.70;96706.00;;;;5050831;28;20233;-85
2022/10/10 10:20:01;;;;;;;1.90;1.80;;;21.10;73.60;21.80;96705.00;;;;5050590;28;20650;-85
2022/10/10 10:22:37;;;;;;;1.57;1.47;;;21.20;73.30;21.90;96705.00;;;;5050579;28;20213;-85
2022/10/10 10:25:32;;;;;;;2.27;1.47;;;21.30;72.90;22.10;96697.00;;;;5047984;28;20228;-85
2022/10/10 10:28:20;;;;;;;3.23;1.60;;;21.50;72.80;22.30;96697.00;;;;5041180;28;20217;-85
2022/10/10 10:30:52;;;;;;;1.43;1.33;;;21.60;72.30;22.40;96697.00;;;;5048089;28;20648;-85
2022/10/10 10:33:38;;;;;;;2.03;1.60;;;21.70;72.80;22.50;96706.00;;;;5047502;28;20240;-85
2022/10/10 10:36:27;;;;;;;1.73;1.63;;;21.80;71.60;22.50;96696.00;;;;5049697;28;20224;-85
2022/10/10 10:39:12;;;;;;;2.03;1.30;;;21.90;70.50;22.60;96701.00;;;;5051342;28;20278;-85
2022/10/10 10:41:50;;;;;;;1.83;1.40;;;22.00;70.80;22.60;96698.00;;;;5052530;28;20249;-85
2022/10/10 10:44:39;;;;;;;2.93;1.30;;;22.00;70.10;22.60;96701.00;;;;5053076;28;20553;-85
2022/10/10 10:47:32;;;;;;;1.30;1.30;;;22.10;69.10;22.70;96697.00;;;;5053994;28;20285;-85
2022/10/10 10:50:25;;;;;;;1.57;1.47;;;22.10;69.60;22.70;96696.00;;;;5046804;28;20288;-85
2022/10/10 10:53:02;;;;;;;1.60;1.30;;;22.10;69.40;22.70;96698.00;;;;5033971;28;20249;-85
2022/10/10 10:55:40;;;;;;;1.93;1.50;;;22.10;69.90;22.70;96693.00;;;;5042038;28;20283;-85
2022/10/10 10:58:52;;;;;;;1.30;1.20;;;22.20;69.90;22.70;96701.00;;;;5053874;28;20208;-85
2022/10/10 11:01:27;;;;;;;1.93;1.50;;;22.20;68.80;22.70;96698.00;;;;5045901;28;20221;-86
2022/10/10 11:04:03;;;;;;;3.00;1.53;;;22.20;69.20;22.70;96698.00;;;;5033894;28;20819;-85
2022/10/10 11:06:57;;;;;;;1.87;1.30;;;22.20;68.40;22.70;96688.00;;;;5051078;28;20710;-86
2022/10/10 11:09:34;;;;;;;1.43;1.30;;;22.20;67.90;22.70;96691.00;;;;5049970;28;20201;-85
2022/10/10 11:12:23;;;;;;;1.13;1.03;;;22.10;68.30;22.70;96682.00;;;;5053904;28;20630;-85
2022/10/10 11:15:03;;;;;;;2.20;1.50;;;22.10;68.20;22.60;96680.00;;;;5051774;28;20591;-85
2022/10/10 11:17:39;;;;;;;1.43;1.13;;;22.10;67.60;22.60;96678.00;;;;5052582;28;20200;-84